sensor_id;sensor_type;location;lat;lon;timestamp;pressure;altitude;pressure_sealevel;temperature;humidity
141;BME280;65;48.778;9.160;2022-08-01T00:01:41;98514.28;;;23.03;44.79
141;BME280;65;48.778;9.160;2022-08-01T00:04:06;98516.78;;;22.97;45.33
141;BME280;65;48.778;9.160;2022-08-01T00:06:32;98514.94;;;22.97;45.34
141;BME280;65;48.778;9.160;2022-08-01T00:08:57;98509.53;;;22.81;45.99
141;BME280;65;48.778;9.160;2022-08-01T00:11:23;98517.59;;;22.73;46.65
141;BME280;65;48.778;9.160;2022-08-01T00:13:48;98517.06;;;22.69;46.51
141;BME280;65;48.778;9.160;2022-08-01T00:16:13;98512.84;;;22.67;46.67
141;BME280;65;48.778;9.160;2022-08-01T00:18:39;98515.88;;;22.64;46.28
141;BME280;65;48.778;9.160;2022-08-01T00:21:04;98520.09;;;22.58;46.92
141;BME280;65;48.778;9.160;2022-08-01T00:23:30;98517.66;;;22.47;47.15
141;BME280;65;48.778;9.160;2022-08-01T00:25:56;98521.84;;;22.41;47.69
141;BME280;65;48.778;9.160;2022-08-01T00:28:22;98522.53;;;22.44;47.46
141;BME280;65;48.778;9.160;2022-08-01T00:30:47;98529.34;;;22.56;47.40
141;BME280;65;48.778;9.160;2022-08-01T00:33:13;98519.25;;;22.58;47.92
141;BME280;65;48.778;9.160;2022-08-01T00:35:38;98532.47;;;22.43;47.26
141;BME280;65;48.778;9.160;2022-08-01T00:38:04;98525.88;;;22.37;48.19
141;BME280;65;48.778;9.160;2022-08-01T00:40:29;98526.22;;;22.34;48.63
141;BME280;65;48.778;9.160;2022-08-01T00:42:54;98525.88;;;22.37;47.93
141;BME280;65;48.778;9.160;2022-08-01T00:45:20;98529.41;;;22.38;48.51
141;BME280;65;48.778;9.160;2022-08-01T00:47:45;98527.25;;;22.41;48.06
141;BME280;65;48.778;9.160;2022-08-01T00:50:11;98530.09;;;22.40;48.75
141;BME280;65;48.778;9.160;2022-08-01T00:52:38;98525.53;;;22.32;48.93
141;BME280;65;48.778;9.160;2022-08-01T00:55:04;98528.91;;;22.34;48.74
141;BME280;65;48.778;9.160;2022-08-01T00:57:29;98539.16;;;22.31;49.10
141;BME280;65;48.778;9.160;2022-08-01T00:59:55;98527.53;;;22.30;49.06
141;BME280;65;48.778;9.160;2022-08-01T01:02:21;98530.22;;;22.22;49.44
141;BME280;65;48.778;9.160;2022-08-01T01:04:46;98531.34;;;22.12;49.57
141;BME280;65;48.778;9.160;2022-08-01T01:07:29;98537.72;;;22.11;50.02
141;BME280;65;48.778;9.160;2022-08-01T01:10:12;98527.97;;;22.09;50.02
141;BME280;65;48.778;9.160;2022-08-01T01:12:59;98539.75;;;22.08;50.11
141;BME280;65;48.778;9.160;2022-08-01T01:15:43;98545.13;;;22.08;50.26
141;BME280;65;48.778;9.160;2022-08-01T01:24:03;98546.91;;;22.00;50.95
141;BME280;65;48.778;9.160;2022-08-01T01:31:31;98552.28;;;22.00;50.98
141;BME280;65;48.778;9.160;2022-08-01T01:33:59;98551.06;;;21.94;50.97
141;BME280;65;48.778;9.160;2022-08-01T01:36:26;98551.53;;;21.90;51.20
141;BME280;65;48.778;9.160;2022-08-01T01:38:54;98554.19;;;21.82;51.66
141;BME280;65;48.778;9.160;2022-08-01T01:41:20;98555.78;;;21.66;51.86
141;BME280;65;48.778;9.160;2022-08-01T01:43:46;98552.38;;;21.64;52.22
141;BME280;65;48.778;9.160;2022-08-01T01:46:16;98556.94;;;21.64;52.57
141;BME280;65;48.778;9.160;2022-08-01T01:48:44;98559.41;;;21.57;52.61
141;BME280;65;48.778;9.160;2022-08-01T01:51:13;98551.03;;;21.60;52.33
141;BME280;65;48.778;9.160;2022-08-01T01:53:39;98564.09;;;21.55;52.96
141;BME280;65;48.778;9.160;2022-08-01T01:56:06;98558.72;;;21.55;52.69
141;BME280;65;48.778;9.160;2022-08-01T01:58:35;98562.56;;;21.53;53.33
141;BME280;65;48.778;9.160;2022-08-01T02:01:02;98564.72;;;21.49;53.12
141;BME280;65;48.778;9.160;2022-08-01T02:03:28;98565.88;;;21.46;53.19
141;BME280;65;48.778;9.160;2022-08-01T02:05:55;98559.13;;;21.42;53.53
141;BME280;65;48.778;9.160;2022-08-01T02:08:23;98560.66;;;21.45;53.29
141;BME280;65;48.778;9.160;2022-08-01T02:10:50;98562.03;;;21.49;53.51
141;BME280;65;48.778;9.160;2022-08-01T02:13:38;98557.34;;;21.51;53.55
141;BME280;65;48.778;9.160;2022-08-01T02:16:04;98564.34;;;21.44;53.99
141;BME280;65;48.778;9.160;2022-08-01T02:18:31;98561.28;;;21.39;54.00
141;BME280;65;48.778;9.160;2022-08-01T02:20:58;98562.81;;;21.41;53.88
141;BME280;65;48.778;9.160;2022-08-01T02:23:28;98567.50;;;21.39;53.98
141;BME280;65;48.778;9.160;2022-08-01T02:25:57;98566.25;;;21.34;54.12
141;BME280;65;48.778;9.160;2022-08-01T02:28:29;98567.56;;;21.30;54.77
141;BME280;65;48.778;9.160;2022-08-01T02:31:07;98564.34;;;21.26;54.86
141;BME280;65;48.778;9.160;2022-08-01T02:33:38;98570.88;;;21.24;54.70
141;BME280;65;48.778;9.160;2022-08-01T02:36:05;98569.19;;;21.23;55.28
141;BME280;65;48.778;9.160;2022-08-01T02:38:35;98574.84;;;21.20;55.02
141;BME280;65;48.778;9.160;2022-08-01T02:41:07;98574.25;;;21.08;55.87
141;BME280;65;48.778;9.160;2022-08-01T02:43:36;98576.31;;;20.96;56.69
141;BME280;65;48.778;9.160;2022-08-01T02:46:04;98577.09;;;20.89;56.88
141;BME280;65;48.778;9.160;2022-08-01T02:48:33;98586.00;;;20.89;56.88
141;BME280;65;48.778;9.160;2022-08-01T02:51:01;98584.00;;;20.91;56.91
141;BME280;65;48.778;9.160;2022-08-01T02:53:31;98584.38;;;20.96;57.08
141;BME280;65;48.778;9.160;2022-08-01T02:55:58;98589.06;;;20.94;57.44
141;BME280;65;48.778;9.160;2022-08-01T02:58:25;98588.44;;;21.00;56.83
141;BME280;65;48.778;9.160;2022-08-01T03:00:51;98579.38;;;21.01;57.29
141;BME280;65;48.778;9.160;2022-08-01T03:03:18;98585.91;;;20.99;57.18
141;BME280;65;48.778;9.160;2022-08-01T03:05:44;98579.00;;;20.96;57.33
141;BME280;65;48.778;9.160;2022-08-01T03:08:11;98586.69;;;20.91;58.02
141;BME280;65;48.778;9.160;2022-08-01T03:10:39;98582.31;;;20.90;58.10
141;BME280;65;48.778;9.160;2022-08-01T03:13:07;98579.63;;;20.90;58.17
141;BME280;65;48.778;9.160;2022-08-01T03:15:37;98581.06;;;20.84;58.20
141;BME280;65;48.778;9.160;2022-08-01T03:18:05;98581.91;;;20.85;58.55
141;BME280;65;48.778;9.160;2022-08-01T03:20:32;98585.59;;;20.84;58.50
141;BME280;65;48.778;9.160;2022-08-01T03:23:01;98588.00;;;20.77;58.86
141;BME280;65;48.778;9.160;2022-08-01T03:25:30;98590.84;;;20.76;58.81
141;BME280;65;48.778;9.160;2022-08-01T03:27:59;98588.16;;;20.76;58.90
141;BME280;65;48.778;9.160;2022-08-01T03:30:27;98587.47;;;20.74;58.95
141;BME280;65;48.778;9.160;2022-08-01T03:32:52;98585.78;;;20.73;58.81
141;BME280;65;48.778;9.160;2022-08-01T03:35:18;98582.72;;;20.68;59.05
141;BME280;65;48.778;9.160;2022-08-01T03:37:47;98587.84;;;20.61;59.44
141;BME280;65;48.778;9.160;2022-08-01T03:40:14;98588.53;;;20.63;59.39
141;BME280;65;48.778;9.160;2022-08-01T03:42:45;98585.47;;;20.58;59.63
141;BME280;65;48.778;9.160;2022-08-01T03:45:19;98591.38;;;20.62;59.33
141;BME280;65;48.778;9.160;2022-08-01T03:47:46;98588.28;;;20.57;59.76
141;BME280;65;48.778;9.160;2022-08-01T03:50:15;98590.59;;;20.51;59.78
141;BME280;65;48.778;9.160;2022-08-01T03:52:44;98589.88;;;20.49;59.83
141;BME280;65;48.778;9.160;2022-08-01T03:55:11;98593.56;;;20.48;59.84
141;BME280;65;48.778;9.160;2022-08-01T03:57:38;98593.16;;;20.43;60.32
141;BME280;65;48.778;9.160;2022-08-01T04:00:06;98599.69;;;20.41;60.55
141;BME280;65;48.778;9.160;2022-08-01T04:02:33;98597.41;;;20.36;60.41
141;BME280;65;48.778;9.160;2022-08-01T04:04:59;98596.28;;;20.39;60.69
141;BME280;65;48.778;9.160;2022-08-01T04:07:29;98592.47;;;20.41;60.47
141;BME280;65;48.778;9.160;2022-08-01T04:09:55;98595.16;;;20.41;60.58
141;BME280;65;48.778;9.160;2022-08-01T04:12:21;98598.84;;;20.40;60.92
141;BME280;65;48.778;9.160;2022-08-01T04:14:46;98596.25;;;20.48;61.04
141;BME280;65;48.778;9.160;2022-08-01T04:17:12;98598.41;;;20.45;60.83
141;BME280;65;48.778;9.160;2022-08-01T04:19:38;98600.72;;;20.58;60.69
141;BME280;65;48.778;9.160;2022-08-01T04:22:04;98602.34;;;20.68;60.15
141;BME280;65;48.778;9.160;2022-08-01T04:24:32;98596.38;;;20.74;59.95
141;BME280;65;48.778;9.160;2022-08-01T04:27:01;98600.75;;;20.75;60.10
141;BME280;65;48.778;9.160;2022-08-01T04:29:27;98607.66;;;20.78;60.20
141;BME280;65;48.778;9.160;2022-08-01T04:31:55;98612.78;;;20.81;60.14
141;BME280;65;48.778;9.160;2022-08-01T04:34:25;98611.31;;;20.87;60.05
141;BME280;65;48.778;9.160;2022-08-01T04:36:52;98613.25;;;20.94;59.79
141;BME280;65;48.778;9.160;2022-08-01T04:39:20;98619.00;;;20.99;59.70
141;BME280;65;48.778;9.160;2022-08-01T04:41:47;98617.56;;;21.05;59.46
141;BME280;65;48.778;9.160;2022-08-01T04:44:13;98615.59;;;21.25;59.29
141;BME280;65;48.778;9.160;2022-08-01T04:46:40;98622.22;;;21.48;59.03
141;BME280;65;48.778;9.160;2022-08-01T04:49:07;98624.63;;;21.77;58.05
141;BME280;65;48.778;9.160;2022-08-01T04:51:34;98628.50;;;22.00;56.67
141;BME280;65;48.778;9.160;2022-08-01T04:54:00;98616.13;;;22.41;55.76
141;BME280;65;48.778;9.160;2022-08-01T04:56:26;98605.00;;;22.79;54.37
141;BME280;65;48.778;9.160;2022-08-01T04:58:52;98607.34;;;23.24;53.21
141;BME280;65;48.778;9.160;2022-08-01T05:01:37;98602.50;;;23.84;51.52
141;BME280;65;48.778;9.160;2022-08-01T05:04:02;98590.94;;;24.15;50.45
141;BME280;65;48.778;9.160;2022-08-01T05:06:28;98596.66;;;24.20;50.52
141;BME280;65;48.778;9.160;2022-08-01T05:08:53;98596.78;;;23.79;51.22
141;BME280;65;48.778;9.160;2022-08-01T05:11:19;98587.97;;;23.37;52.87
141;BME280;65;48.778;9.160;2022-08-01T05:13:44;98587.25;;;23.10;54.33
141;BME280;65;48.778;9.160;2022-08-01T05:16:09;98591.97;;;23.08;54.53
141;BME280;65;48.778;9.160;2022-08-01T05:18:35;98593.44;;;22.86;55.24
141;BME280;65;48.778;9.160;2022-08-01T05:21:00;98590.31;;;23.40;54.14
141;BME280;65;48.778;9.160;2022-08-01T05:23:27;98588.56;;;24.20;51.62
141;BME280;65;48.778;9.160;2022-08-01T05:25:52;98596.47;;;24.46;50.46
141;BME280;65;48.778;9.160;2022-08-01T05:28:17;98595.13;;;24.42;50.75
141;BME280;65;48.778;9.160;2022-08-01T05:30:43;98596.53;;;24.05;51.35
141;BME280;65;48.778;9.160;2022-08-01T05:33:08;98586.44;;;23.99;52.04
141;BME280;65;48.778;9.160;2022-08-01T05:35:34;98586.63;;;23.89;51.92
141;BME280;65;48.778;9.160;2022-08-01T05:37:59;98595.75;;;23.88;52.25
141;BME280;65;48.778;9.160;2022-08-01T05:40:25;98594.94;;;23.72;52.86
141;BME280;65;48.778;9.160;2022-08-01T05:42:50;98598.28;;;23.57;53.46
141;BME280;65;48.778;9.160;2022-08-01T05:45:15;98602.81;;;23.65;53.69
141;BME280;65;48.778;9.160;2022-08-01T05:47:41;98603.31;;;24.01;53.05
141;BME280;65;48.778;9.160;2022-08-01T05:50:06;98607.78;;;24.88;50.18
141;BME280;65;48.778;9.160;2022-08-01T05:52:32;98601.94;;;26.29;46.55
141;BME280;65;48.778;9.160;2022-08-01T05:54:57;98605.25;;;26.68;45.21
141;BME280;65;48.778;9.160;2022-08-01T05:57:23;98611.31;;;26.41;45.80
141;BME280;65;48.778;9.160;2022-08-01T05:59:48;98625.78;;;25.58;48.29
141;BME280;65;48.778;9.160;2022-08-01T06:02:13;98614.63;;;25.30;48.84
141;BME280;65;48.778;9.160;2022-08-01T06:04:39;98617.56;;;24.89;49.89
141;BME280;65;48.778;9.160;2022-08-01T06:07:04;98615.38;;;24.46;51.74
141;BME280;65;48.778;9.160;2022-08-01T06:09:30;98613.50;;;24.54;51.39
141;BME280;65;48.778;9.160;2022-08-01T06:11:56;98613.63;;;24.61;51.33
141;BME280;65;48.778;9.160;2022-08-01T06:14:21;98613.78;;;24.68;51.16
141;BME280;65;48.778;9.160;2022-08-01T06:16:46;98609.25;;;24.60;51.53
141;BME280;65;48.778;9.160;2022-08-01T06:19:12;98616.72;;;24.50;52.09
141;BME280;65;48.778;9.160;2022-08-01T06:21:37;98617.22;;;24.53;52.14
141;BME280;65;48.778;9.160;2022-08-01T06:24:03;98612.03;;;24.44;51.80
141;BME280;65;48.778;9.160;2022-08-01T06:26:29;98614.53;;;24.45;52.26
141;BME280;65;48.778;9.160;2022-08-01T06:28:54;98611.31;;;24.50;52.12
141;BME280;65;48.778;9.160;2022-08-01T06:31:20;98609.94;;;24.54;51.84
141;BME280;65;48.778;9.160;2022-08-01T06:33:45;98609.56;;;24.65;52.03
141;BME280;65;48.778;9.160;2022-08-01T06:36:10;98604.22;;;24.49;52.09
141;BME280;65;48.778;9.160;2022-08-01T06:38:38;98607.91;;;24.56;52.20
141;BME280;65;48.778;9.160;2022-08-01T06:41:03;98599.91;;;24.71;51.36
141;BME280;65;48.778;9.160;2022-08-01T06:43:29;98608.22;;;24.61;51.88
141;BME280;65;48.778;9.160;2022-08-01T06:45:54;98607.16;;;24.70;51.59
141;BME280;65;48.778;9.160;2022-08-01T06:48:19;98617.53;;;25.29;50.18
141;BME280;65;48.778;9.160;2022-08-01T06:50:45;98613.94;;;27.72;44.29
141;BME280;65;48.778;9.160;2022-08-01T06:53:10;98612.47;;;30.41;37.99
141;BME280;65;48.778;9.160;2022-08-01T06:55:36;98607.22;;;32.30;34.36
141;BME280;65;48.778;9.160;2022-08-01T06:58:01;98613.19;;;33.49;32.21
141;BME280;65;48.778;9.160;2022-08-01T07:00:27;98611.25;;;34.44;30.23
141;BME280;65;48.778;9.160;2022-08-01T07:02:54;98611.47;;;34.43;30.02
141;BME280;65;48.778;9.160;2022-08-01T07:05:39;98615.72;;;33.92;31.69
141;BME280;65;48.778;9.160;2022-08-01T07:08:22;98608.69;;;34.78;29.78
141;BME280;65;48.778;9.160;2022-08-01T07:10:48;98611.06;;;36.17;28.07
141;BME280;65;48.778;9.160;2022-08-01T07:13:13;98606.22;;;36.24;27.09
141;BME280;65;48.778;9.160;2022-08-01T07:15:42;98609.06;;;36.29;27.11
141;BME280;65;48.778;9.160;2022-08-01T07:18:08;98608.78;;;36.86;26.57
141;BME280;65;48.778;9.160;2022-08-01T07:20:33;98613.16;;;35.47;27.30
141;BME280;65;48.778;9.160;2022-08-01T07:22:59;98609.22;;;33.33;31.11
141;BME280;65;48.778;9.160;2022-08-01T07:25:24;98610.88;;;32.86;32.10
141;BME280;65;48.778;9.160;2022-08-01T07:27:49;98608.72;;;32.69;32.32
141;BME280;65;48.778;9.160;2022-08-01T07:30:15;98605.97;;;32.69;32.62
141;BME280;65;48.778;9.160;2022-08-01T07:32:40;98599.06;;;33.04;31.47
141;BME280;65;48.778;9.160;2022-08-01T07:35:06;98612.75;;;32.85;32.62
141;BME280;65;48.778;9.160;2022-08-01T07:37:31;98611.09;;;34.28;30.30
141;BME280;65;48.778;9.160;2022-08-01T07:39:57;98606.25;;;36.07;27.42
141;BME280;65;48.778;9.160;2022-08-01T07:42:22;98604.22;;;36.19;27.37
141;BME280;65;48.778;9.160;2022-08-01T07:44:47;98600.56;;;36.47;26.74
141;BME280;65;48.778;9.160;2022-08-01T07:47:13;98591.53;;;35.11;28.28
141;BME280;65;48.778;9.160;2022-08-01T07:49:38;98600.09;;;33.92;30.23
141;BME280;65;48.778;9.160;2022-08-01T07:52:04;98596.91;;;35.91;27.25
141;BME280;65;48.778;9.160;2022-08-01T07:54:31;98594.47;;;35.21;27.25
141;BME280;65;48.778;9.160;2022-08-01T07:56:56;98586.72;;;32.94;31.52
141;BME280;65;48.778;9.160;2022-08-01T07:59:22;98590.78;;;33.40;31.09
141;BME280;65;48.778;9.160;2022-08-01T08:01:49;98597.31;;;32.72;32.34
141;BME280;65;48.778;9.160;2022-08-01T08:04:16;98603.47;;;34.30;29.67
141;BME280;65;48.778;9.160;2022-08-01T08:06:41;98597.41;;;33.62;30.07
141;BME280;65;48.778;9.160;2022-08-01T08:09:07;98601.66;;;32.19;32.54
141;BME280;65;48.778;9.160;2022-08-01T08:11:33;98600.25;;;30.57;35.84
141;BME280;65;48.778;9.160;2022-08-01T08:13:58;98598.25;;;29.53;38.09
141;BME280;65;48.778;9.160;2022-08-01T08:16:23;98594.72;;;30.90;36.51
141;BME280;65;48.778;9.160;2022-08-01T08:18:49;98597.19;;;33.34;31.68
141;BME280;65;48.778;9.160;2022-08-01T08:21:14;98590.38;;;32.33;32.91
141;BME280;65;48.778;9.160;2022-08-01T08:23:39;98587.50;;;32.65;32.51
141;BME280;65;48.778;9.160;2022-08-01T08:26:23;98596.78;;;34.84;29.78
141;BME280;65;48.778;9.160;2022-08-01T08:28:50;98584.44;;;36.39;27.07
141;BME280;65;48.778;9.160;2022-08-01T08:31:15;98582.38;;;37.92;24.63
141;BME280;65;48.778;9.160;2022-08-01T08:33:41;98594.09;;;38.89;23.63
141;BME280;65;48.778;9.160;2022-08-01T08:36:06;98581.94;;;38.95;23.70
141;BME280;65;48.778;9.160;2022-08-01T08:38:31;98586.84;;;38.31;24.70
141;BME280;65;48.778;9.160;2022-08-01T08:40:57;98579.94;;;39.78;22.32
141;BME280;65;48.778;9.160;2022-08-01T08:43:25;98579.94;;;39.53;22.36
141;BME280;65;48.778;9.160;2022-08-01T08:45:52;98582.72;;;40.19;21.34
141;BME280;65;48.778;9.160;2022-08-01T08:48:17;98585.28;;;38.13;24.25
141;BME280;65;48.778;9.160;2022-08-01T08:50:45;98584.88;;;36.91;26.16
141;BME280;65;48.778;9.160;2022-08-01T08:53:13;98573.72;;;35.13;28.71
141;BME280;65;48.778;9.160;2022-08-01T08:55:41;98582.03;;;33.01;32.36
141;BME280;65;48.778;9.160;2022-08-01T08:58:12;98588.16;;;31.74;33.80
141;BME280;65;48.778;9.160;2022-08-01T09:00:41;98596.53;;;30.38;36.76
141;BME280;65;48.778;9.160;2022-08-01T09:03:07;98591.75;;;29.81;37.92
141;BME280;65;48.778;9.160;2022-08-01T09:05:32;98596.56;;;29.85;39.13
141;BME280;65;48.778;9.160;2022-08-01T09:07:58;98582.19;;;31.21;35.55
141;BME280;65;48.778;9.160;2022-08-01T09:10:23;98580.34;;;31.46;35.24
141;BME280;65;48.778;9.160;2022-08-01T09:15:51;98587.19;;;32.36;33.93
141;BME280;65;48.778;9.160;2022-08-01T09:18:31;98586.91;;;32.45;32.99
141;BME280;65;48.778;9.160;2022-08-01T09:21:21;98581.81;;;32.48;32.42
141;BME280;65;48.778;9.160;2022-08-01T09:23:54;98591.28;;;32.27;33.05
141;BME280;65;48.778;9.160;2022-08-01T09:26:27;98586.28;;;31.68;34.88
141;BME280;65;48.778;9.160;2022-08-01T09:28:54;98585.47;;;30.91;36.14
141;BME280;65;48.778;9.160;2022-08-01T09:31:27;98591.88;;;30.52;36.52
141;BME280;65;48.778;9.160;2022-08-01T09:36:27;98593.97;;;33.07;32.82
141;BME280;65;48.778;9.160;2022-08-01T09:39:12;98591.31;;;33.60;30.72
141;BME280;65;48.778;9.160;2022-08-01T09:41:38;98594.47;;;33.16;32.36
141;BME280;65;48.778;9.160;2022-08-01T09:44:04;98597.06;;;34.36;30.09
141;BME280;65;48.778;9.160;2022-08-01T09:46:29;98593.00;;;35.42;28.52
141;BME280;65;48.778;9.160;2022-08-01T09:49:04;98595.84;;;35.80;27.43
141;BME280;65;48.778;9.160;2022-08-01T09:51:39;98598.34;;;34.45;30.07
141;BME280;65;48.778;9.160;2022-08-01T09:54:06;98601.16;;;33.50;31.57
141;BME280;65;48.778;9.160;2022-08-01T09:56:39;98591.88;;;33.21;32.15
141;BME280;65;48.778;9.160;2022-08-01T09:59:06;98593.25;;;33.12;32.06
141;BME280;65;48.778;9.160;2022-08-01T10:01:46;98595.16;;;31.95;33.76
141;BME280;65;48.778;9.160;2022-08-01T10:04:16;98595.66;;;30.64;36.37
141;BME280;65;48.778;9.160;2022-08-01T10:06:44;98597.13;;;30.47;37.44
141;BME280;65;48.778;9.160;2022-08-01T10:09:12;98600.28;;;30.50;36.37
141;BME280;65;48.778;9.160;2022-08-01T10:11:39;98597.63;;;30.04;37.55
141;BME280;65;48.778;9.160;2022-08-01T10:14:06;98590.28;;;30.05;38.03
141;BME280;65;48.778;9.160;2022-08-01T10:16:33;98590.59;;;33.53;31.70
141;BME280;65;48.778;9.160;2022-08-01T10:19:00;98587.06;;;36.12;28.05
141;BME280;65;48.778;9.160;2022-08-01T10:21:27;98582.44;;;36.95;25.36
141;BME280;65;48.778;9.160;2022-08-01T10:23:54;98578.41;;;37.78;24.76
141;BME280;65;48.778;9.160;2022-08-01T10:26:20;98582.22;;;37.72;24.56
141;BME280;65;48.778;9.160;2022-08-01T10:28:48;98574.84;;;36.41;26.58
141;BME280;65;48.778;9.160;2022-08-01T10:31:13;98573.19;;;35.28;27.44
141;BME280;65;48.778;9.160;2022-08-01T10:33:39;98565.59;;;34.78;29.00
141;BME280;65;48.778;9.160;2022-08-01T10:36:07;98568.84;;;37.59;25.72
141;BME280;65;48.778;9.160;2022-08-01T10:38:34;98556.69;;;39.74;21.74
141;BME280;65;48.778;9.160;2022-08-01T10:41:02;98559.13;;;39.40;22.02
141;BME280;65;48.778;9.160;2022-08-01T10:43:27;98555.59;;;36.85;25.60
141;BME280;65;48.778;9.160;2022-08-01T10:45:53;98572.97;;;33.73;30.14
141;BME280;65;48.778;9.160;2022-08-01T10:48:49;98570.78;;;32.55;31.83
141;BME280;65;48.778;9.160;2022-08-01T10:51:17;98568.53;;;31.21;34.74
141;BME280;65;48.778;9.160;2022-08-01T10:53:47;98558.38;;;30.25;37.04
141;BME280;65;48.778;9.160;2022-08-01T10:56:13;98557.53;;;30.89;35.75
141;BME280;65;48.778;9.160;2022-08-01T10:58:41;98554.91;;;34.42;29.35
141;BME280;65;48.778;9.160;2022-08-01T11:06:26;98542.31;;;37.85;23.97
141;BME280;65;48.778;9.160;2022-08-01T11:08:54;98544.69;;;37.17;24.71
141;BME280;65;48.778;9.160;2022-08-01T11:11:21;98531.25;;;38.69;23.45
141;BME280;65;48.778;9.160;2022-08-01T11:14:05;98546.00;;;36.88;25.41
141;BME280;65;48.778;9.160;2022-08-01T11:16:50;98529.91;;;35.24;27.31
141;BME280;65;48.778;9.160;2022-08-01T11:19:15;98543.00;;;33.48;30.12
141;BME280;65;48.778;9.160;2022-08-01T11:27:30;98524.44;;;32.90;31.40
141;BME280;65;48.778;9.160;2022-08-01T11:32:38;98526.38;;;38.34;23.54
141;BME280;65;48.778;9.160;2022-08-01T11:35:10;98521.09;;;40.68;20.48
141;BME280;65;48.778;9.160;2022-08-01T11:37:36;98516.66;;;41.94;19.38
141;BME280;65;48.778;9.160;2022-08-01T11:40:27;98506.97;;;43.11;17.71
141;BME280;65;48.778;9.160;2022-08-01T11:45:50;98504.00;;;37.93;23.66
141;BME280;65;48.778;9.160;2022-08-01T11:48:24;98501.75;;;35.62;26.70
141;BME280;65;48.778;9.160;2022-08-01T11:50:51;98512.66;;;33.73;29.67
141;BME280;65;48.778;9.160;2022-08-01T11:53:17;98511.13;;;33.88;29.01
141;BME280;65;48.778;9.160;2022-08-01T11:55:53;98507.34;;;35.22;26.57
141;BME280;65;48.778;9.160;2022-08-01T11:58:23;98497.03;;;36.73;24.96
141;BME280;65;48.778;9.160;2022-08-01T12:00:56;98497.34;;;35.15;26.76
141;BME280;65;48.778;9.160;2022-08-01T12:03:27;98497.44;;;32.75;30.77
141;BME280;65;48.778;9.160;2022-08-01T12:05:54;98504.09;;;31.63;32.76
141;BME280;65;48.778;9.160;2022-08-01T12:10:53;98486.06;;;34.20;29.47
141;BME280;65;48.778;9.160;2022-08-01T12:13:19;98475.66;;;35.47;26.52
141;BME280;65;48.778;9.160;2022-08-01T12:15:46;98464.44;;;35.04;26.92
141;BME280;65;48.778;9.160;2022-08-01T12:18:12;98477.03;;;33.19;30.26
141;BME280;65;48.778;9.160;2022-08-01T12:20:39;98474.19;;;31.68;32.17
141;BME280;65;48.778;9.160;2022-08-01T12:23:17;98477.53;;;30.89;33.69
141;BME280;65;48.778;9.160;2022-08-01T12:25:42;98473.53;;;30.46;34.99
141;BME280;65;48.778;9.160;2022-08-01T12:28:12;98475.38;;;30.08;35.05
141;BME280;65;48.778;9.160;2022-08-01T12:30:39;98485.69;;;29.66;36.38
141;BME280;65;48.778;9.160;2022-08-01T12:33:07;98481.22;;;29.91;37.61
141;BME280;65;48.778;9.160;2022-08-01T12:35:34;98482.69;;;32.76;31.58
141;BME280;65;48.778;9.160;2022-08-01T12:38:07;98471.09;;;35.08;28.02
141;BME280;65;48.778;9.160;2022-08-01T12:40:41;98465.63;;;36.74;25.43
141;BME280;65;48.778;9.160;2022-08-01T12:43:08;98479.16;;;37.93;23.63
141;BME280;65;48.778;9.160;2022-08-01T12:45:38;98464.22;;;35.72;25.97
141;BME280;65;48.778;9.160;2022-08-01T12:48:18;98472.72;;;33.65;29.25
141;BME280;65;48.778;9.160;2022-08-01T12:50:46;98478.03;;;32.77;30.47
141;BME280;65;48.778;9.160;2022-08-01T12:53:12;98462.69;;;32.46;31.28
141;BME280;65;48.778;9.160;2022-08-01T12:55:51;98462.44;;;32.29;31.64
141;BME280;65;48.778;9.160;2022-08-01T12:58:18;98463.34;;;31.86;32.46
141;BME280;65;48.778;9.160;2022-08-01T13:00:46;98468.50;;;32.13;32.66
141;BME280;65;48.778;9.160;2022-08-01T13:03:17;98460.69;;;32.34;32.31
141;BME280;65;48.778;9.160;2022-08-01T13:05:54;98466.41;;;32.81;30.45
141;BME280;65;48.778;9.160;2022-08-01T13:08:31;98465.06;;;32.42;31.39
141;BME280;65;48.778;9.160;2022-08-01T13:11:05;98461.91;;;32.20;31.99
141;BME280;65;48.778;9.160;2022-08-01T13:13:42;98463.16;;;33.44;29.71
141;BME280;65;48.778;9.160;2022-08-01T13:16:09;98457.81;;;32.48;32.56
141;BME280;65;48.778;9.160;2022-08-01T13:18:35;98459.69;;;31.67;33.50
141;BME280;65;48.778;9.160;2022-08-01T13:21:11;98462.97;;;32.56;32.75
141;BME280;65;48.778;9.160;2022-08-01T13:24:22;98458.19;;;32.33;32.48
141;BME280;65;48.778;9.160;2022-08-01T13:26:51;98459.47;;;32.30;33.02
141;BME280;65;48.778;9.160;2022-08-01T13:29:23;98455.53;;;32.45;32.46
141;BME280;65;48.778;9.160;2022-08-01T13:31:53;98449.06;;;32.87;31.39
141;BME280;65;48.778;9.160;2022-08-01T13:34:29;98458.31;;;32.56;32.03
141;BME280;65;48.778;9.160;2022-08-01T13:36:55;98447.69;;;32.30;32.38
141;BME280;65;48.778;9.160;2022-08-01T13:39:21;98446.63;;;31.94;32.98
141;BME280;65;48.778;9.160;2022-08-01T13:42:05;98454.63;;;32.51;32.70
141;BME280;65;48.778;9.160;2022-08-01T13:44:30;98451.47;;;33.49;30.46
141;BME280;65;48.778;9.160;2022-08-01T13:46:56;98452.91;;;33.51;29.89
141;BME280;65;48.778;9.160;2022-08-01T13:49:21;98435.50;;;33.34;30.06
141;BME280;65;48.778;9.160;2022-08-01T13:51:47;98443.03;;;33.74;30.12
141;BME280;65;48.778;9.160;2022-08-01T13:54:15;98434.88;;;34.25;28.81
141;BME280;65;48.778;9.160;2022-08-01T13:56:40;98445.66;;;33.92;29.37
141;BME280;65;48.778;9.160;2022-08-01T13:59:06;98441.22;;;34.14;28.95
141;BME280;65;48.778;9.160;2022-08-01T14:01:32;98449.69;;;33.78;29.17
141;BME280;65;48.778;9.160;2022-08-01T14:03:57;98440.00;;;34.22;29.38
141;BME280;65;48.778;9.160;2022-08-01T14:06:42;98440.78;;;34.46;29.06
141;BME280;65;48.778;9.160;2022-08-01T14:09:10;98441.00;;;33.81;30.07
141;BME280;65;48.778;9.160;2022-08-01T14:11:36;98454.19;;;33.37;30.29
141;BME280;65;48.778;9.160;2022-08-01T14:14:01;98442.34;;;33.01;30.79
141;BME280;65;48.778;9.160;2022-08-01T14:16:28;98432.59;;;33.29;29.88
141;BME280;65;48.778;9.160;2022-08-01T14:18:53;98428.88;;;33.12;30.01
141;BME280;65;48.778;9.160;2022-08-01T14:21:18;98421.84;;;32.74;30.82
141;BME280;65;48.778;9.160;2022-08-01T14:23:44;98430.13;;;32.56;31.19
141;BME280;65;48.778;9.160;2022-08-01T14:26:09;98437.91;;;32.41;31.88
141;BME280;65;48.778;9.160;2022-08-01T14:28:38;98423.50;;;32.75;30.87
141;BME280;65;48.778;9.160;2022-08-01T14:31:04;98436.09;;;31.98;32.20
141;BME280;65;48.778;9.160;2022-08-01T14:33:31;98425.13;;;32.53;31.91
141;BME280;65;48.778;9.160;2022-08-01T14:35:57;98438.31;;;33.16;30.70
141;BME280;65;48.778;9.160;2022-08-01T14:38:22;98431.22;;;33.85;29.62